Time;durP1;ratioP1;P1;durP2;ratioP2;P2;SDS_P1;SDS_P2;PMS_P1;PMS_P2;Temp;Humidity;BMP_temperature;BMP_pressure;BME280_temperature;BME280_humidity;BME280_pressure;Samples;Min_cycle;Max_cycle;Signal;HPM_P1;HPM_P2
2020/12/06 00:01:00;;;;;;;3.42;1.12;;;5.90;99.90;;;;;;4416945;32;20078;-57
2020/12/06 00:03:25;;;;;;;1.75;1.65;;;5.90;99.90;;;;;;4415587;32;20062;-56
2020/12/06 00:05:51;;;;;;;1.40;1.30;;;5.90;99.90;;;;;;4405740;32;20070;-57
2020/12/06 00:08:16;;;;;;;10.00;1.58;;;5.90;99.90;;;;;;4401680;32;20182;-58
2020/12/06 00:10:42;;;;;;;0.70;0.70;;;5.90;99.90;;;;;;4401169;32;20109;-56
2020/12/06 00:13:07;;;;;;;0.50;0.50;;;5.90;99.90;;;;;;4401095;32;20408;-56
2020/12/06 00:15:32;;;;;;;2.28;1.35;;;5.90;99.90;;;;;;4401618;32;20070;-58
2020/12/06 00:17:58;;;;;;;4.57;1.70;;;5.80;99.90;;;;;;4400624;32;20121;-56
2020/12/06 00:20:24;;;;;;;1.75;1.08;;;5.90;99.90;;;;;;4402174;32;20058;-57
2020/12/06 00:22:50;;;;;;;2.75;1.67;;;5.80;99.90;;;;;;4401523;32;20099;-59
2020/12/06 00:25:15;;;;;;;7.82;1.12;;;5.80;99.90;;;;;;4402589;32;20058;-59
2020/12/06 00:27:41;;;;;;;1.20;1.10;;;5.80;99.90;;;;;;4387315;32;20112;-58
2020/12/06 00:30:09;;;;;;;2.58;1.20;;;5.80;99.90;;;;;;4401451;32;20393;-57
2020/12/06 00:32:34;;;;;;;1.17;1.05;;;5.80;99.90;;;;;;4387445;32;20125;-57
2020/12/06 00:35:00;;;;;;;2.75;1.40;;;5.80;99.90;;;;;;4387711;32;20074;-59
2020/12/06 00:37:25;;;;;;;5.80;1.25;;;5.80;99.90;;;;;;4401130;32;20117;-59
2020/12/06 00:39:51;;;;;;;8.38;1.98;;;5.80;99.90;;;;;;4401494;32;20074;-59
2020/12/06 00:42:16;;;;;;;2.95;1.23;;;5.80;99.90;;;;;;4401634;32;20070;-59
2020/12/06 00:44:42;;;;;;;14.32;1.55;;;5.80;99.90;;;;;;4400326;32;20075;-58
2020/12/06 00:47:07;;;;;;;1.85;1.60;;;5.70;99.90;;;;;;4401313;32;20078;-59
2020/12/06 00:49:32;;;;;;;1.08;1.02;;;5.70;99.90;;;;;;4400630;32;20425;-59
2020/12/06 00:51:58;;;;;;;2.30;1.58;;;5.70;99.90;;;;;;4400708;32;20121;-56
2020/12/06 00:54:24;;;;;;;2.42;1.48;;;5.70;99.90;;;;;;4401699;32;20066;-58
2020/12/06 00:56:54;;;;;;;3.72;2.53;;;5.70;99.90;;;;;;4400242;32;20112;-57
2020/12/06 00:59:20;;;;;;;3.62;1.55;;;5.70;99.90;;;;;;4401777;32;20508;-59
2020/12/06 01:01:45;;;;;;;1.75;1.50;;;5.60;99.90;;;;;;4402497;32;20062;-55
2020/12/06 01:04:11;;;;;;;4.97;1.50;;;5.60;99.90;;;;;;4401916;32;20113;-59
2020/12/06 01:06:36;;;;;;;0.75;0.75;;;5.60;99.90;;;;;;4416195;32;20120;-57
2020/12/06 01:09:03;;;;;;;3.08;1.85;;;5.60;99.90;;;;;;4415656;32;20065;-59
2020/12/06 01:11:28;;;;;;;4.85;2.65;;;5.60;99.90;;;;;;4416578;32;20066;-58
2020/12/06 01:13:54;;;;;;;1.92;1.48;;;5.60;99.90;;;;;;4415950;32;20053;-57
2020/12/06 01:16:19;;;;;;;5.53;2.58;;;5.60;99.90;;;;;;4415932;32;20070;-59
2020/12/06 01:18:45;;;;;;;2.22;2.03;;;5.60;99.90;;;;;;4402789;32;20519;-58
2020/12/06 01:21:11;;;;;;;4.87;2.28;;;5.60;99.90;;;;;;4416835;32;20419;-57
2020/12/06 01:23:37;;;;;;;8.05;2.55;;;5.50;99.90;;;;;;4406667;32;20079;-59
2020/12/06 01:26:02;;;;;;;3.85;2.20;;;5.50;99.90;;;;;;4414966;32;20500;-58
2020/12/06 01:28:28;;;;;;;4.90;2.15;;;5.50;99.90;;;;;;4415889;32;20425;-58
2020/12/06 01:30:53;;;;;;;2.37;1.65;;;5.50;99.90;;;;;;4414926;32;20149;-56
2020/12/06 01:33:19;;;;;;;1.83;1.67;;;5.50;99.90;;;;;;4415436;32;20066;-58
2020/12/06 01:35:44;;;;;;;2.87;1.75;;;5.50;99.90;;;;;;4416238;32;20131;-54
2020/12/06 01:38:10;;;;;;;1.87;1.37;;;5.50;99.90;;;;;;4415450;32;20499;-55
2020/12/06 01:40:39;;;;;;;5.82;1.87;;;5.40;99.90;;;;;;4415612;32;20062;-58
2020/12/06 01:43:05;;;;;;;9.23;2.72;;;5.40;99.90;;;;;;4416217;32;20070;-58
2020/12/06 01:45:31;;;;;;;1.33;1.27;;;5.40;99.90;;;;;;4414942;32;20515;-54
2020/12/06 01:47:56;;;;;;;2.90;1.92;;;5.40;99.90;;;;;;4415344;32;20074;-56
2020/12/06 01:50:23;;;;;;;1.40;1.30;;;5.40;99.90;;;;;;4415408;32;20062;-58
2020/12/06 01:52:49;;;;;;;4.32;1.15;;;5.40;99.90;;;;;;4416353;32;20092;-59
2020/12/06 01:55:14;;;;;;;4.00;2.00;;;5.40;99.90;;;;;;4414689;32;20062;-58
2020/12/06 01:57:40;;;;;;;3.35;1.83;;;5.30;99.90;;;;;;4414895;32;20070;-57
2020/12/06 02:00:07;;;;;;;3.22;1.30;;;5.30;99.90;;;;;;4415455;32;20061;-58
2020/12/06 02:02:33;;;;;;;1.17;1.08;;;5.30;99.90;;;;;;4415040;32;20069;-59
2020/12/06 02:04:59;;;;;;;3.28;1.60;;;5.30;99.90;;;;;;4408434;32;20500;-57
2020/12/06 02:07:27;;;;;;;2.17;1.98;;;5.30;99.90;;;;;;4401004;32;20066;-57
2020/12/06 02:09:52;;;;;;;1.62;1.52;;;5.40;99.90;;;;;;4399498;32;20134;-59
2020/12/06 02:12:17;;;;;;;3.62;2.67;;;5.40;99.90;;;;;;4400723;32;20109;-59
2020/12/06 02:14:43;;;;;;;1.60;1.50;;;5.40;99.90;;;;;;4400348;32;20074;-59
2020/12/06 02:17:08;;;;;;;1.85;1.40;;;5.40;99.90;;;;;;4400142;32;20157;-59
2020/12/06 02:19:34;;;;;;;1.33;1.23;;;5.50;99.90;;;;;;4400599;32;20082;-58
2020/12/06 02:21:59;;;;;;;2.35;1.87;;;5.50;99.90;;;;;;4400903;32;20430;-58
2020/12/06 02:24:25;;;;;;;3.60;1.52;;;5.50;99.90;;;;;;4400424;32;20071;-59
2020/12/06 02:26:51;;;;;;;13.05;2.78;;;5.60;99.90;;;;;;4399306;32;20070;-59
2020/12/06 02:29:18;;;;;;;1.65;1.55;;;5.60;99.90;;;;;;4399578;32;20074;-59
2020/12/06 02:31:44;;;;;;;3.37;1.67;;;5.60;99.90;;;;;;4386428;32;20110;-59
2020/12/06 02:34:10;;;;;;;2.40;1.73;;;5.60;99.90;;;;;;4389046;32;20125;-58
2020/12/06 02:36:37;;;;;;;3.97;1.58;;;5.60;99.90;;;;;;4402798;32;20512;-58
2020/12/06 02:39:06;;;;;;;4.10;2.10;;;5.70;99.90;;;;;;4388309;32;20074;-57
2020/12/06 02:41:37;;;;;;;2.28;1.40;;;5.70;99.90;;;;;;4376692;32;20154;-59
2020/12/06 02:44:04;;;;;;;1.73;1.27;;;5.70;99.90;;;;;;4388874;32;20065;-55
2020/12/06 02:46:29;;;;;;;1.48;1.30;;;5.80;99.90;;;;;;4389464;32;20077;-59
2020/12/06 02:48:55;;;;;;;3.17;1.85;;;5.80;99.90;;;;;;4402704;32;20079;-58
2020/12/06 02:51:20;;;;;;;2.15;1.75;;;5.80;99.90;;;;;;4402167;32;20113;-58
2020/12/06 02:53:45;;;;;;;2.75;1.02;;;5.90;99.90;;;;;;4402508;32;20075;-59
2020/12/06 02:56:11;;;;;;;2.83;1.55;;;5.80;99.90;;;;;;4402045;32;20109;-57
2020/12/06 02:58:36;;;;;;;4.80;1.83;;;5.90;99.90;;;;;;4402197;32;20058;-59
2020/12/06 03:01:02;;;;;;;1.33;1.10;;;5.80;99.90;;;;;;4402482;32;20133;-58
2020/12/06 03:03:27;;;;;;;0.80;0.80;;;5.80;99.90;;;;;;4402509;32;20069;-58
2020/12/06 03:05:53;;;;;;;2.95;1.48;;;5.90;99.90;;;;;;4412953;32;20062;-57
2020/12/06 03:08:18;;;;;;;18.67;1.95;;;6.00;99.90;;;;;;4417836;32;20062;-59
2020/12/06 03:10:44;;;;;;;1.48;0.88;;;6.00;99.90;;;;;;4417336;32;20065;-58
2020/12/06 03:13:09;;;;;;;2.40;1.17;;;6.00;99.90;;;;;;4418251;32;20069;-59
2020/12/06 03:15:35;;;;;;;1.50;1.27;;;5.90;99.90;;;;;;4397412;32;20519;-57
2020/12/06 03:18:00;;;;;;;1.75;1.17;;;6.00;99.90;;;;;;4402727;32;20058;-56
2020/12/06 03:20:26;;;;;;;0.90;0.90;;;6.00;99.90;;;;;;4402604;32;20078;-58
2020/12/06 03:22:51;;;;;;;4.78;2.28;;;5.90;99.90;;;;;;4401619;32;20516;-55
2020/12/06 03:25:16;;;;;;;0.88;0.88;;;6.00;99.90;;;;;;4401439;32;20078;-59
2020/12/06 03:27:42;;;;;;;1.83;1.73;;;6.00;99.90;;;;;;4400285;32;20075;-58
2020/12/06 03:30:07;;;;;;;3.65;2.35;;;6.10;99.90;;;;;;4401309;32;20062;-57
2020/12/06 03:32:33;;;;;;;1.15;1.02;;;6.10;99.90;;;;;;4402409;32;20635;-58
2020/12/06 03:34:58;;;;;;;19.08;1.77;;;6.00;99.90;;;;;;4401287;32;20078;-58
2020/12/06 03:37:24;;;;;;;0.65;0.65;;;6.10;99.90;;;;;;4401524;32;20117;-58
2020/12/06 03:39:49;;;;;;;1.15;1.00;;;6.10;99.90;;;;;;4402100;32;20062;-58
2020/12/06 03:42:15;;;;;;;2.58;1.45;;;6.10;99.90;;;;;;4402575;32;20070;-57
2020/12/06 03:44:41;;;;;;;22.70;1.35;;;6.00;99.90;;;;;;4393517;32;20074;-59
2020/12/06 03:47:06;;;;;;;0.77;0.77;;;6.00;99.90;;;;;;4386678;32;20512;-59
2020/12/06 03:49:32;;;;;;;4.57;1.75;;;6.00;99.90;;;;;;4386386;32;20065;-59
2020/12/06 03:51:57;;;;;;;1.98;1.12;;;6.00;99.90;;;;;;4372619;32;20406;-57
2020/12/06 03:54:23;;;;;;;1.50;1.30;;;6.10;99.90;;;;;;4361953;32;20071;-59
2020/12/06 03:56:48;;;;;;;2.37;1.25;;;6.10;99.90;;;;;;4386475;32;20402;-56
2020/12/06 03:59:14;;;;;;;4.07;1.33;;;6.10;99.90;;;;;;4385865;32;20075;-59
2020/12/06 04:01:39;;;;;;;3.35;1.95;;;6.00;99.90;;;;;;4386238;32;20070;-58
2020/12/06 04:04:05;;;;;;;1.80;1.08;;;6.10;99.90;;;;;;4388323;32;20098;-57
2020/12/06 04:06:30;;;;;;;2.92;1.00;;;6.10;99.90;;;;;;4417404;32;20122;-56
2020/12/06 04:08:56;;;;;;;2.00;1.10;;;6.10;99.90;;;;;;4416675;32;20057;-57
2020/12/06 04:11:22;;;;;;;1.37;1.25;;;6.10;99.90;;;;;;4417447;32;20054;-58
2020/12/06 04:13:48;;;;;;;5.97;1.23;;;6.00;99.90;;;;;;4416205;32;20082;-58
2020/12/06 04:16:13;;;;;;;3.45;1.62;;;6.10;99.90;;;;;;4387830;32;20071;-59
2020/12/06 04:18:39;;;;;;;5.18;1.40;;;6.10;99.90;;;;;;4385494;32;20086;-59
2020/12/06 04:21:04;;;;;;;7.15;1.87;;;6.10;99.90;;;;;;4386431;32;20078;-58
2020/12/06 04:23:30;;;;;;;1.45;1.35;;;6.10;99.90;;;;;;4376678;32;20083;-59
2020/12/06 04:25:55;;;;;;;2.22;1.33;;;6.20;99.90;;;;;;4397275;32;20058;-58
2020/12/06 04:28:21;;;;;;;1.37;1.27;;;6.10;99.90;;;;;;4401659;32;20078;-59
2020/12/06 04:30:46;;;;;;;1.27;1.17;;;6.10;99.90;;;;;;4399449;32;20078;-58
2020/12/06 04:33:12;;;;;;;1.67;1.55;;;6.10;99.90;;;;;;4405443;32;20421;-54
2020/12/06 04:35:37;;;;;;;1.02;1.02;;;6.20;99.90;;;;;;4390337;32;20078;-58
2020/12/06 04:38:03;;;;;;;1.20;1.10;;;6.10;99.90;;;;;;4386888;32;20062;-58
2020/12/06 04:40:29;;;;;;;0.85;0.85;;;6.10;99.90;;;;;;4386276;32;20512;-58
2020/12/06 04:42:55;;;;;;;2.25;1.20;;;6.10;99.90;;;;;;4372825;32;20066;-58
2020/12/06 04:45:21;;;;;;;1.02;1.02;;;6.10;99.90;;;;;;4392564;32;20429;-58
2020/12/06 04:47:56;;;;;;;8.50;1.37;;;6.10;99.90;;;;;;4401201;32;20120;-59
2020/12/06 04:50:26;;;;;;;2.80;1.42;;;6.10;99.90;;;;;;4384201;32;20473;-56
2020/12/06 04:52:57;;;;;;;15.40;1.10;;;6.10;99.90;;;;;;4386085;32;20075;-59
2020/12/06 04:55:26;;;;;;;1.12;1.05;;;6.00;99.90;;;;;;4384988;32;20071;-59
2020/12/06 04:57:55;;;;;;;1.45;1.08;;;6.00;99.90;;;;;;4386043;32;20082;-58
2020/12/06 05:00:30;;;;;;;2.65;1.77;;;6.00;99.90;;;;;;4387793;32;20069;-59
2020/12/06 05:02:58;;;;;;;1.77;1.02;;;6.00;99.90;;;;;;4385502;32;20512;-57
2020/12/06 05:05:33;;;;;;;1.02;0.73;;;5.90;99.90;;;;;;4401164;32;20061;-59
2020/12/06 05:08:03;;;;;;;3.45;1.75;;;5.90;99.90;;;;;;4417109;32;20066;-58
2020/12/06 05:10:28;;;;;;;11.13;1.83;;;5.90;99.90;;;;;;4399416;32;20105;-59
2020/12/06 05:12:54;;;;;;;2.87;1.83;;;5.80;99.90;;;;;;4400335;32;20101;-59
2020/12/06 05:15:19;;;;;;;1.77;1.05;;;5.80;99.90;;;;;;4401432;32;20132;-54
2020/12/06 05:17:45;;;;;;;0.93;0.88;;;5.80;99.90;;;;;;4399909;32;20066;-59
2020/12/06 05:20:11;;;;;;;3.47;1.87;;;5.80;99.90;;;;;;4401354;32;20128;-58
2020/12/06 05:22:45;;;;;;;0.70;0.70;;;5.80;99.90;;;;;;4401060;32;20385;-57
2020/12/06 05:25:11;;;;;;;3.80;1.70;;;5.70;99.90;;;;;;4388118;32;20132;-58
2020/12/06 05:27:37;;;;;;;3.15;1.33;;;5.80;99.90;;;;;;4401092;32;20055;-59
2020/12/06 05:30:03;;;;;;;0.88;0.88;;;5.90;99.90;;;;;;4389670;32;20394;-58
2020/12/06 05:32:29;;;;;;;1.55;1.20;;;5.80;99.90;;;;;;4371957;32;20082;-56
2020/12/06 05:34:54;;;;;;;1.12;1.02;;;5.90;99.90;;;;;;4388550;32;20145;-59
2020/12/06 05:37:20;;;;;;;1.92;1.67;;;5.90;99.90;;;;;;4373078;32;20055;-58
2020/12/06 05:39:45;;;;;;;1.08;1.02;;;5.90;99.90;;;;;;4372262;32;20062;-57
2020/12/06 05:42:11;;;;;;;1.75;1.37;;;6.00;99.90;;;;;;4385843;32;20421;-54
2020/12/06 05:44:37;;;;;;;2.70;1.90;;;6.00;99.90;;;;;;4372274;32;20499;-59
2020/12/06 05:47:13;;;;;;;1.55;0.80;;;6.00;99.90;;;;;;4385610;32;20161;-58
2020/12/06 05:49:39;;;;;;;2.67;1.20;;;6.10;99.90;;;;;;4394348;32;20396;-59
2020/12/06 05:52:06;;;;;;;1.35;1.20;;;6.00;99.90;;;;;;4400569;32;20086;-54
2020/12/06 05:54:31;;;;;;;1.15;1.05;;;6.00;99.90;;;;;;4400113;32;20146;-56
2020/12/06 05:56:57;;;;;;;0.82;0.82;;;6.10;99.90;;;;;;4400169;32;20062;-54
2020/12/06 05:59:23;;;;;;;14.75;1.40;;;6.10;99.90;;;;;;4393235;32;20063;-55
2020/12/06 06:01:51;;;;;;;9.85;1.08;;;6.10;99.90;;;;;;4371510;32;20129;-58
2020/12/06 06:04:19;;;;;;;1.50;1.37;;;6.10;99.90;;;;;;4374488;32;20062;-59
2020/12/06 06:06:46;;;;;;;0.95;0.95;;;6.10;99.90;;;;;;4402404;32;20086;-59
2020/12/06 06:09:13;;;;;;;2.28;1.98;;;6.10;99.90;;;;;;4408549;32;20063;-59
2020/12/06 06:11:39;;;;;;;1.25;0.80;;;6.00;99.90;;;;;;4374520;32;20062;-60
2020/12/06 06:14:08;;;;;;;3.50;1.77;;;6.00;99.90;;;;;;4387123;32;20074;-57
2020/12/06 06:16:34;;;;;;;0.80;0.80;;;6.00;99.90;;;;;;4387472;32;20597;-57
2020/12/06 06:19:03;;;;;;;1.75;1.10;;;5.90;99.90;;;;;;4377061;32;20066;-59
2020/12/06 06:21:35;;;;;;;1.67;1.08;;;5.90;99.90;;;;;;4377079;32;20074;-56
2020/12/06 06:24:05;;;;;;;1.23;1.12;;;5.90;99.90;;;;;;4402582;32;20463;-58
2020/12/06 06:26:34;;;;;;;1.85;1.15;;;5.90;99.90;;;;;;4389286;32;20074;-57
2020/12/06 06:28:59;;;;;;;1.33;1.02;;;5.90;99.90;;;;;;4397858;32;20062;-58
2020/12/06 06:31:28;;;;;;;1.95;1.20;;;5.90;99.90;;;;;;4386931;32;20066;-58
2020/12/06 06:33:54;;;;;;;1.90;1.67;;;5.90;99.90;;;;;;4386612;32;20497;-56
2020/12/06 06:36:22;;;;;;;0.90;0.90;;;5.90;99.90;;;;;;4387348;32;20078;-54
2020/12/06 06:38:49;;;;;;;1.10;1.10;;;5.90;99.90;;;;;;4375116;32;20061;-57
2020/12/06 06:41:15;;;;;;;2.28;1.73;;;5.90;99.90;;;;;;4374515;32;20114;-58
2020/12/06 06:43:42;;;;;;;4.62;1.48;;;5.90;99.90;;;;;;4373207;32;20074;-58
2020/12/06 06:46:11;;;;;;;3.22;1.52;;;5.80;99.90;;;;;;4373897;32;20070;-54
2020/12/06 06:48:36;;;;;;;2.30;1.27;;;5.90;99.90;;;;;;4374112;32;20059;-59
2020/12/06 06:51:03;;;;;;;3.15;1.55;;;5.80;99.90;;;;;;4388298;32;20079;-58
2020/12/06 06:53:29;;;;;;;16.58;2.20;;;5.90;99.90;;;;;;4386829;32;20121;-57
2020/12/06 06:55:55;;;;;;;3.60;1.30;;;5.80;99.90;;;;;;4373451;32;20074;-56
2020/12/06 06:58:26;;;;;;;10.70;1.52;;;5.80;99.90;;;;;;4362155;32;20075;-59
2020/12/06 07:01:11;;;;;;;0.70;0.70;;;5.80;99.90;;;;;;4373502;32;20066;-58
2020/12/06 07:03:41;;;;;;;3.37;1.40;;;5.80;99.90;;;;;;4376662;32;20070;-59
2020/12/06 07:06:07;;;;;;;1.37;1.27;;;5.80;99.90;;;;;;4412601;32;20062;-57
2020/12/06 07:08:33;;;;;;;4.85;1.87;;;5.90;99.90;;;;;;4414816;32;20113;-58
2020/12/06 07:11:04;;;;;;;1.45;1.15;;;5.90;99.90;;;;;;4388462;32;20069;-59
2020/12/06 07:13:30;;;;;;;1.25;1.23;;;5.90;99.90;;;;;;4390827;32;20067;-59
2020/12/06 07:15:55;;;;;;;9.65;4.00;;;5.90;99.90;;;;;;4405644;32;20062;-56
2020/12/06 07:18:21;;;;;;;3.78;1.75;;;5.90;99.90;;;;;;4406966;32;20079;-60
2020/12/06 07:20:46;;;;;;;11.43;1.17;;;6.00;99.90;;;;;;4387176;32;20069;-54
2020/12/06 07:23:12;;;;;;;0.95;0.95;;;6.00;99.90;;;;;;4387639;32;20067;-56
2020/12/06 07:25:38;;;;;;;2.45;1.37;;;6.10;99.90;;;;;;4386326;32;20500;-58
2020/12/06 07:28:04;;;;;;;1.40;0.65;;;6.20;99.90;;;;;;4360310;32;20066;-59
2020/12/06 07:30:29;;;;;;;0.90;0.90;;;6.20;99.90;;;;;;4401821;32;20082;-58
2020/12/06 07:32:55;;;;;;;1.50;0.95;;;6.30;99.90;;;;;;4402895;32;20054;-59
2020/12/06 07:35:23;;;;;;;0.85;0.73;;;6.40;99.90;;;;;;4401432;32;20066;-60
2020/12/06 07:37:55;;;;;;;3.55;1.92;;;6.50;99.90;;;;;;4402042;32;20070;-56
2020/12/06 07:40:20;;;;;;;2.92;1.20;;;6.50;99.90;;;;;;4387243;32;20477;-58
2020/12/06 07:42:46;;;;;;;0.62;0.62;;;6.50;99.90;;;;;;4401523;32;20058;-57
2020/12/06 07:45:11;;;;;;;2.35;1.42;;;6.60;99.90;;;;;;4401166;32;20539;-56
2020/12/06 07:47:37;;;;;;;1.00;0.93;;;6.70;99.90;;;;;;4401015;32;20062;-59
2020/12/06 07:50:04;;;;;;;0.57;0.57;;;6.80;99.90;;;;;;4390440;32;20078;-59
2020/12/06 07:52:33;;;;;;;1.12;0.98;;;6.80;99.90;;;;;;4361183;32;20058;-59
2020/12/06 07:55:00;;;;;;;1.05;0.95;;;6.90;99.90;;;;;;4361250;32;20116;-57
2020/12/06 07:57:50;;;;;;;1.35;1.25;;;7.00;99.90;;;;;;4373376;32;20070;-58
2020/12/06 08:00:20;;;;;;;0.73;0.70;;;7.10;99.90;;;;;;4375660;32;20113;-56
2020/12/06 08:02:48;;;;;;;0.80;0.80;;;7.10;99.90;;;;;;4386691;32;20075;-58
2020/12/06 08:05:19;;;;;;;0.77;0.77;;;7.10;99.90;;;;;;4404613;32;20572;-57
2020/12/06 08:07:46;;;;;;;1.80;0.75;;;7.10;99.90;;;;;;4415763;32;20049;-58
2020/12/06 08:10:16;;;;;;;0.73;0.73;;;7.10;99.90;;;;;;4394930;32;20532;-58
2020/12/06 08:12:45;;;;;;;2.92;0.80;;;7.20;99.90;;;;;;4386706;32;20051;-57
2020/12/06 08:15:11;;;;;;;3.03;1.37;;;7.20;99.90;;;;;;4373490;32;20066;-58
2020/12/06 08:17:46;;;;;;;0.95;0.88;;;7.20;99.90;;;;;;4372497;32;20449;-58
2020/12/06 08:20:14;;;;;;;0.68;0.68;;;7.30;99.90;;;;;;4378090;32;20094;-58
2020/12/06 08:22:57;;;;;;;0.65;0.65;;;7.30;99.90;;;;;;4387359;32;20125;-59
2020/12/06 08:25:27;;;;;;;0.93;0.93;;;7.40;99.90;;;;;;4388212;32;20054;-59
2020/12/06 08:27:54;;;;;;;1.50;1.33;;;7.40;99.90;;;;;;4386777;32;20067;-59
2020/12/06 08:30:23;;;;;;;1.17;0.90;;;7.40;99.90;;;;;;4396732;32;20079;-59
2020/12/06 08:32:58;;;;;;;0.50;0.50;;;7.40;99.90;;;;;;4390424;32;20050;-58
2020/12/06 08:35:42;;;;;;;2.83;1.58;;;7.40;99.90;;;;;;4401081;32;20144;-58
2020/12/06 08:38:28;;;;;;;10.15;1.42;;;7.50;99.90;;;;;;4401682;32;20078;-58
2020/12/06 08:41:11;;;;;;;0.68;0.68;;;7.50;99.90;;;;;;4373971;32;73674;-58
2020/12/06 08:44:02;;;;;;;1.85;0.95;;;7.50;99.90;;;;;;4372422;32;20063;-57
2020/12/06 08:46:31;;;;;;;3.57;1.17;;;7.50;99.90;;;;;;4363111;32;20125;-57
2020/12/06 08:49:00;;;;;;;1.12;1.02;;;7.50;99.90;;;;;;4378921;32;20070;-57
2020/12/06 08:51:47;;;;;;;0.57;0.57;;;7.50;99.90;;;;;;4377319;32;20050;-57
2020/12/06 08:54:12;;;;;;;3.53;2.40;;;7.60;99.90;;;;;;4378912;32;20070;-58
2020/12/06 08:56:39;;;;;;;0.98;0.85;;;7.60;99.90;;;;;;4401037;32;20074;-57
2020/12/06 08:59:08;;;;;;;0.70;0.70;;;7.60;99.90;;;;;;4386033;32;20069;-58
2020/12/06 09:01:47;;;;;;;1.52;1.05;;;7.60;99.90;;;;;;4400683;32;20062;-58
2020/12/06 09:04:13;;;;;;;10.73;1.83;;;7.70;99.90;;;;;;4388724;32;20106;-57
2020/12/06 09:06:39;;;;;;;7.10;1.48;;;7.70;99.90;;;;;;4415744;32;20116;-58
2020/12/06 09:09:04;;;;;;;1.17;0.80;;;7.80;99.90;;;;;;4403872;32;20074;-58
2020/12/06 09:11:30;;;;;;;0.62;0.62;;;7.90;99.90;;;;;;4386029;32;20070;-57
2020/12/06 09:13:55;;;;;;;1.02;0.90;;;7.90;99.90;;;;;;4386120;32;20549;-57
2020/12/06 09:16:21;;;;;;;1.40;0.95;;;7.90;99.90;;;;;;4385905;32;20124;-59
2020/12/06 09:18:47;;;;;;;1.40;0.60;;;8.00;99.90;;;;;;4388376;32;20412;-59
2020/12/06 09:21:12;;;;;;;2.83;1.23;;;8.20;99.90;;;;;;4400988;32;20086;-60
2020/12/06 09:23:38;;;;;;;1.80;1.45;;;8.20;99.90;;;;;;4391993;32;20086;-58
2020/12/06 09:26:05;;;;;;;3.08;0.93;;;8.30;99.90;;;;;;4399066;32;20129;-57
2020/12/06 09:28:31;;;;;;;0.70;0.70;;;8.40;99.90;;;;;;4399381;32;20149;-57
2020/12/06 09:30:57;;;;;;;1.67;0.70;;;8.40;99.90;;;;;;4372451;32;20074;-59
2020/12/06 09:33:23;;;;;;;0.50;0.50;;;8.50;99.90;;;;;;4387033;32;20070;-59
2020/12/06 09:35:49;;;;;;;0.68;0.68;;;8.60;99.90;;;;;;4385920;32;20058;-59
2020/12/06 09:38:15;;;;;;;1.83;1.02;;;8.60;99.90;;;;;;4388502;32;20070;-59
2020/12/06 09:40:40;;;;;;;0.75;0.75;;;8.60;99.90;;;;;;4386296;32;20124;-59
2020/12/06 09:43:06;;;;;;;1.12;1.00;;;8.70;99.90;;;;;;4387514;32;20087;-59
2020/12/06 09:45:32;;;;;;;1.73;1.48;;;8.70;99.90;;;;;;4389385;32;20086;-58
2020/12/06 09:47:57;;;;;;;1.50;1.08;;;8.70;99.90;;;;;;4391423;32;20082;-58
2020/12/06 09:50:23;;;;;;;0.85;0.85;;;8.80;99.90;;;;;;4402261;32;20069;-58
2020/12/06 09:52:49;;;;;;;0.70;0.70;;;8.80;99.90;;;;;;4402322;32;20508;-59
2020/12/06 09:55:14;;;;;;;2.65;1.37;;;9.00;99.90;;;;;;4403088;32;20065;-59
2020/12/06 09:57:39;;;;;;;1.00;0.93;;;9.10;99.90;;;;;;4403515;32;20405;-57
2020/12/06 10:00:06;;;;;;;2.35;1.40;;;9.20;99.90;;;;;;4401717;32;20078;-58
2020/12/06 10:02:31;;;;;;;2.15;0.95;;;9.20;99.90;;;;;;4402309;32;20084;-55
2020/12/06 10:04:57;;;;;;;13.00;2.33;;;9.30;99.90;;;;;;4409454;32;20066;-56
2020/12/06 10:07:24;;;;;;;1.83;1.05;;;9.40;99.90;;;;;;4417715;32;20081;-59
2020/12/06 10:09:50;;;;;;;1.90;1.20;;;9.40;99.90;;;;;;4401772;32;20134;-58
2020/12/06 10:12:15;;;;;;;2.33;1.27;;;9.50;99.90;;;;;;4402416;32;20070;-59
2020/12/06 10:14:41;;;;;;;0.82;0.60;;;9.60;99.90;;;;;;4402194;32;20504;-57
2020/12/06 10:17:06;;;;;;;4.28;1.45;;;9.70;99.90;;;;;;4401518;32;20128;-59
2020/12/06 10:19:32;;;;;;;28.48;2.35;;;9.80;99.90;;;;;;4403300;32;20073;-58
2020/12/06 10:21:58;;;;;;;0.68;0.62;;;9.80;99.90;;;;;;4403963;32;20070;-58
2020/12/06 10:24:23;;;;;;;1.85;0.98;;;9.80;99.90;;;;;;4402524;32;20082;-58
2020/12/06 10:26:51;;;;;;;1.75;0.80;;;9.90;99.90;;;;;;4389699;32;20087;-59
2020/12/06 10:29:17;;;;;;;1.17;1.00;;;9.90;99.90;;;;;;4400562;32;20188;-59
2020/12/06 10:31:42;;;;;;;1.55;1.23;;;10.00;99.90;;;;;;4402713;32;20133;-60
2020/12/06 10:34:08;;;;;;;0.55;0.55;;;10.10;99.90;;;;;;4402709;32;20066;-60
2020/12/06 10:36:33;;;;;;;1.83;1.45;;;10.10;99.90;;;;;;4404070;32;20445;-54
2020/12/06 10:38:59;;;;;;;0.50;0.50;;;10.20;99.90;;;;;;4395975;32;20567;-58
2020/12/06 10:41:24;;;;;;;1.25;0.60;;;10.20;99.90;;;;;;4387700;32;20074;-57
2020/12/06 10:43:50;;;;;;;0.75;0.75;;;10.30;99.90;;;;;;4388208;32;20075;-58
2020/12/06 10:46:15;;;;;;;8.52;1.10;;;10.30;99.90;;;;;;4387333;32;20126;-59
2020/12/06 10:48:41;;;;;;;4.87;1.58;;;10.40;99.90;;;;;;4378439;32;20507;-57
2020/12/06 10:51:06;;;;;;;1.17;0.68;;;10.50;99.90;;;;;;4402705;32;20065;-58
2020/12/06 10:53:31;;;;;;;0.50;0.50;;;10.50;99.90;;;;;;4402329;32;20066;-58
2020/12/06 10:55:57;;;;;;;0.88;0.82;;;10.60;99.90;;;;;;4402145;32;20519;-57
2020/12/06 10:58:22;;;;;;;0.65;0.65;;;10.70;99.90;;;;;;4387380;32;20066;-59
2020/12/06 11:00:48;;;;;;;0.70;0.65;;;10.70;99.90;;;;;;4387301;32;20078;-59
2020/12/06 11:03:13;;;;;;;1.08;0.80;;;10.60;99.90;;;;;;4388067;32;20062;-57
2020/12/06 11:05:39;;;;;;;0.52;0.52;;;10.60;99.90;;;;;;4407053;32;20117;-58
2020/12/06 11:08:04;;;;;;;0.68;0.68;;;10.60;99.90;;;;;;4417447;32;20358;-58
2020/12/06 11:10:30;;;;;;;0.32;0.32;;;10.70;99.90;;;;;;4388003;32;20083;-58
2020/12/06 11:12:55;;;;;;;0.77;0.77;;;10.80;99.90;;;;;;4386760;32;20130;-58
2020/12/06 11:15:21;;;;;;;0.60;0.60;;;10.90;99.90;;;;;;4386265;32;20082;-57
2020/12/06 11:17:46;;;;;;;0.50;0.50;;;10.90;99.90;;;;;;4387609;32;20069;-59
2020/12/06 11:20:12;;;;;;;3.28;1.00;;;10.90;99.90;;;;;;4374415;32;20512;-58
2020/12/06 11:22:37;;;;;;;1.27;0.93;;;11.00;99.90;;;;;;4386827;32;20058;-57
2020/12/06 11:25:03;;;;;;;4.05;1.23;;;11.10;99.90;;;;;;4387786;32;20078;-59
2020/12/06 11:27:29;;;;;;;0.70;0.70;;;11.20;99.90;;;;;;4389978;32;20070;-58
2020/12/06 11:29:54;;;;;;;1.92;0.80;;;11.30;99.90;;;;;;4387313;32;20078;-59
2020/12/06 11:32:27;;;;;;;0.73;0.73;;;11.20;99.90;;;;;;4386967;32;20512;-58
2020/12/06 11:34:52;;;;;;;0.52;0.52;;;11.20;99.90;;;;;;4386726;32;20087;-58
2020/12/06 11:37:18;;;;;;;1.95;0.80;;;11.20;99.90;;;;;;4397632;32;20065;-59
2020/12/06 11:39:43;;;;;;;0.73;0.70;;;11.10;99.90;;;;;;4401344;32;20065;-57
2020/12/06 11:42:09;;;;;;;0.95;0.90;;;11.20;99.90;;;;;;4401589;32;20062;-58
2020/12/06 11:44:34;;;;;;;1.62;0.85;;;11.20;99.90;;;;;;4400887;32;20583;-58
2020/12/06 11:47:00;;;;;;;1.05;0.95;;;11.20;99.90;;;;;;4400381;32;20070;-59
2020/12/06 11:49:25;;;;;;;4.53;1.33;;;11.20;99.90;;;;;;4401089;32;20090;-55
2020/12/06 11:51:54;;;;;;;0.62;0.62;;;11.20;99.90;;;;;;4403816;32;20062;-57
2020/12/06 11:54:20;;;;;;;1.85;1.02;;;11.20;99.90;;;;;;4389510;32;20083;-59
2020/12/06 11:56:49;;;;;;;0.75;0.75;;;11.40;99.90;;;;;;4398097;32;20503;-60
2020/12/06 11:59:17;;;;;;;0.85;0.80;;;11.50;99.90;;;;;;4387265;32;20070;-59
2020/12/06 12:01:43;;;;;;;2.40;0.90;;;11.50;99.90;;;;;;4373625;32;20054;-60
2020/12/06 12:04:09;;;;;;;0.73;0.55;;;11.50;99.90;;;;;;4386774;32;20154;-59
2020/12/06 12:06:34;;;;;;;0.88;0.88;;;11.50;99.90;;;;;;4412963;32;20062;-60
2020/12/06 12:09:00;;;;;;;1.00;0.90;;;11.60;99.90;;;;;;4402081;32;20125;-60
2020/12/06 12:11:25;;;;;;;1.45;0.80;;;11.70;99.90;;;;;;4401836;32;20066;-58
2020/12/06 12:13:51;;;;;;;1.40;0.88;;;11.70;99.90;;;;;;4401886;32;20067;-57
2020/12/06 12:16:16;;;;;;;7.18;1.08;;;11.70;99.90;;;;;;4401893;32;20093;-59
2020/12/06 12:18:42;;;;;;;1.23;1.15;;;11.70;99.90;;;;;;4388096;32;20194;-60
2020/12/06 12:21:07;;;;;;;3.87;0.95;;;11.70;99.90;;;;;;4387167;32;20070;-58
2020/12/06 12:23:33;;;;;;;0.60;0.60;;;11.70;99.90;;;;;;4400522;32;20091;-59
2020/12/06 12:25:58;;;;;;;0.68;0.68;;;11.70;99.90;;;;;;4400860;32;20062;-60
2020/12/06 12:28:24;;;;;;;0.73;0.73;;;11.70;99.90;;;;;;4401057;32;20086;-60
2020/12/06 12:30:49;;;;;;;1.35;1.08;;;11.60;99.90;;;;;;4400696;32;20075;-58
2020/12/06 12:33:15;;;;;;;3.92;0.57;;;11.60;99.90;;;;;;4387652;32;20077;-58
2020/12/06 12:35:40;;;;;;;0.60;0.60;;;11.50;99.90;;;;;;4401329;32;20539;-58
2020/12/06 12:38:06;;;;;;;1.42;0.93;;;11.50;99.90;;;;;;4400803;32;20070;-59
2020/12/06 12:40:31;;;;;;;1.10;0.65;;;11.50;99.90;;;;;;4400987;32;20058;-58
2020/12/06 12:42:57;;;;;;;0.50;0.50;;;11.70;99.90;;;;;;4400965;32;20117;-59
2020/12/06 12:45:22;;;;;;;0.98;0.62;;;11.70;99.90;;;;;;4400042;32;20079;-58
2020/12/06 12:47:52;;;;;;;21.48;2.08;;;11.90;99.90;;;;;;4400356;32;20116;-59
2020/12/06 12:50:18;;;;;;;1.02;1.00;;;12.20;99.90;;;;;;4400158;32;20070;-58
2020/12/06 12:52:46;;;;;;;0.73;0.73;;;12.40;99.90;;;;;;4401041;32;20117;-58